createdAt,value
2022-11-24T00:00:23.029Z,16
2022-11-24T00:01:23.018Z,13
2022-11-24T00:02:23.192Z,11
2022-11-24T00:03:23.171Z,15
2022-11-24T00:04:23.175Z,17
2022-11-24T00:05:23.030Z,17
2022-11-24T00:06:23.028Z,19
2022-11-24T00:07:23.151Z,13
2022-11-24T00:08:23.045Z,19
2022-11-24T00:09:23.037Z,18
2022-11-24T00:10:23.044Z,13
2022-11-24T00:11:23.101Z,15
2022-11-24T00:12:23.034Z,15
2022-11-24T00:13:23.027Z,14
2022-11-24T00:14:23.043Z,14
2022-11-24T00:15:23.033Z,16
2022-11-24T00:16:23.044Z,12
2022-11-24T00:17:23.052Z,14
2022-11-24T00:18:23.147Z,16
2022-11-24T00:19:23.099Z,15
2022-11-24T00:20:23.077Z,15
2022-11-24T00:21:23.094Z,15
2022-11-24T00:22:23.047Z,21
2022-11-24T00:23:23.057Z,14
2022-11-24T00:24:23.102Z,13
2022-11-24T00:25:23.027Z,15
2022-11-24T00:26:23.111Z,18
2022-11-24T00:27:23.141Z,17
2022-11-24T00:28:23.033Z,16
2022-11-24T00:29:23.029Z,19
2022-11-24T00:30:23.042Z,17
2022-11-24T00:31:23.107Z,16
2022-11-24T00:32:23.036Z,15
2022-11-24T00:33:23.052Z,14
2022-11-24T00:34:23.123Z,15
2022-11-24T00:35:23.039Z,19
2022-11-24T00:36:23.035Z,19
2022-11-24T00:37:23.025Z,15
2022-11-24T00:38:23.155Z,13
2022-11-24T00:39:23.026Z,15
2022-11-24T00:40:23.047Z,13
2022-11-24T00:41:23.327Z,21
2022-11-24T00:42:23.091Z,15
2022-11-24T00:43:23.039Z,16
2022-11-24T00:44:23.033Z,14
2022-11-24T00:45:23.134Z,13
2022-11-24T00:46:23.147Z,13
2022-11-24T00:47:23.171Z,12
2022-11-24T00:48:23.054Z,15
2022-11-24T00:49:23.094Z,13
2022-11-24T00:50:23.167Z,15
2022-11-24T00:51:23.019Z,15
2022-11-24T00:52:23.151Z,18
2022-11-24T00:53:23.046Z,18
2022-11-24T00:54:23.044Z,19
2022-11-24T00:55:23.039Z,13
2022-11-24T00:56:23.057Z,19
2022-11-24T00:57:23.103Z,15
2022-11-24T00:58:23.162Z,17
2022-11-24T00:59:23.035Z,22
2022-11-24T01:00:23.035Z,18
2022-11-24T01:01:23.108Z,17
2022-11-24T01:02:23.117Z,13
2022-11-24T01:03:23.032Z,17
2022-11-24T01:04:23.045Z,12
2022-11-24T01:05:23.082Z,14
2022-11-24T01:06:23.047Z,11
2022-11-24T01:07:23.100Z,14
2022-11-24T01:08:23.047Z,18
2022-11-24T01:09:23.228Z,17
2022-11-24T01:10:23.035Z,13
2022-11-24T01:11:23.050Z,14
2022-11-24T01:12:23.111Z,13
2022-11-24T01:13:23.101Z,12
2022-11-24T01:14:23.026Z,14
2022-11-24T01:15:23.130Z,16
2022-11-24T01:16:23.088Z,16
2022-11-24T01:17:23.019Z,21
2022-11-24T01:18:23.058Z,13
2022-11-24T01:19:23.107Z,14
2022-11-24T01:20:23.120Z,15
2022-11-24T01:21:23.149Z,15
2022-11-24T01:22:23.023Z,27
2022-11-24T01:23:23.038Z,15
2022-11-24T01:24:23.035Z,16
2022-11-24T01:25:23.024Z,13
2022-11-24T01:26:23.031Z,17
2022-11-24T01:27:23.015Z,14
2022-11-24T01:28:23.128Z,17
2022-11-24T01:29:23.123Z,12
2022-11-24T01:30:23.058Z,19
2022-11-24T01:31:23.070Z,15
2022-11-24T01:32:23.112Z,13
2022-11-24T01:33:23.032Z,12
2022-11-24T01:34:23.019Z,15
2022-11-24T01:35:23.055Z,17
2022-11-24T01:36:23.102Z,18
2022-11-24T01:37:23.023Z,14
2022-11-24T01:38:23.051Z,16
2022-11-24T01:39:23.024Z,18
2022-11-24T01:40:23.025Z,16
2022-11-24T01:41:23.048Z,13
2022-11-24T01:42:23.035Z,11
2022-11-24T01:43:23.129Z,15
2022-11-24T01:44:23.110Z,18
2022-11-24T01:45:23.024Z,13
2022-11-24T01:46:23.275Z,16
2022-11-24T01:47:23.020Z,16
2022-11-24T01:48:27.145Z,13
2022-11-24T01:49:23.036Z,20
2022-11-24T01:50:23.040Z,12
2022-11-24T01:51:23.103Z,12
2022-11-24T01:52:23.141Z,19
2022-11-24T01:53:23.031Z,14
2022-11-24T01:54:23.050Z,14
2022-11-24T01:55:23.023Z,13
2022-11-24T01:56:23.046Z,17
2022-11-24T01:57:23.017Z,16
2022-11-24T01:58:23.043Z,15
2022-11-24T01:59:23.129Z,12
2022-11-24T02:00:23.147Z,9
2022-11-24T02:01:23.090Z,16
2022-11-24T02:02:23.099Z,18
2022-11-24T02:03:23.098Z,18
2022-11-24T02:04:23.033Z,21
2022-11-24T02:05:23.061Z,14
2022-11-24T02:06:23.050Z,15
2022-11-24T02:07:23.174Z,15
2022-11-24T02:08:23.048Z,15
2022-11-24T02:09:23.027Z,16
2022-11-24T02:10:23.073Z,13
2022-11-24T02:11:23.105Z,17
2022-11-24T02:12:23.040Z,19
2022-11-24T02:13:23.072Z,18
2022-11-24T02:14:23.195Z,11
2022-11-24T02:15:23.131Z,14
2022-11-24T02:16:23.112Z,13
2022-11-24T02:17:23.152Z,12
2022-11-24T02:18:23.043Z,19
2022-11-24T02:19:23.017Z,13
2022-11-24T02:20:23.109Z,19
2022-11-24T02:21:23.017Z,20
2022-11-24T02:22:23.098Z,16
2022-11-24T02:23:23.136Z,18
2022-11-24T02:24:23.024Z,12
2022-11-24T02:25:23.027Z,18
2022-11-24T02:26:23.042Z,19
2022-11-24T02:27:23.021Z,15
2022-11-24T02:28:23.031Z,21
2022-11-24T02:29:23.024Z,13
2022-11-24T02:30:23.112Z,13
2022-11-24T02:31:23.080Z,17
2022-11-24T02:32:23.021Z,14
2022-11-24T02:33:23.047Z,16
2022-11-24T02:34:23.023Z,14
2022-11-24T02:35:23.026Z,15
2022-11-24T02:36:23.025Z,20
2022-11-24T02:37:23.120Z,17
2022-11-24T02:38:23.090Z,12
2022-11-24T02:39:23.023Z,14
2022-11-24T02:40:23.099Z,14
2022-11-24T02:41:23.036Z,9
2022-11-24T02:42:23.026Z,16
2022-11-24T02:43:23.100Z,16
2022-11-24T02:44:23.026Z,14
2022-11-24T02:45:23.103Z,13
2022-11-24T02:46:23.215Z,16
2022-11-24T02:47:23.006Z,15
2022-11-24T02:48:23.035Z,16
2022-11-24T02:49:23.036Z,15
2022-11-24T02:50:23.022Z,13
2022-11-24T02:51:23.039Z,14
2022-11-24T02:52:23.020Z,18
2022-11-24T02:53:23.097Z,15
2022-11-24T02:54:23.127Z,16
2022-11-24T02:55:23.028Z,12
2022-11-24T02:56:23.034Z,17
2022-11-24T02:57:23.104Z,15
2022-11-24T02:58:23.048Z,16
2022-11-24T02:59:23.034Z,14
2022-11-24T03:00:23.063Z,15
2022-11-24T03:01:23.159Z,15
2022-11-24T03:02:23.187Z,16
2022-11-24T03:03:23.049Z,14
2022-11-24T03:04:23.010Z,15
2022-11-24T03:05:23.023Z,14
2022-11-24T03:06:23.032Z,13
2022-11-24T03:07:23.082Z,18
2022-11-24T03:08:23.148Z,16
2022-11-24T03:09:23.126Z,20
2022-11-24T03:10:23.054Z,13
2022-11-24T03:11:23.116Z,16
2022-11-24T03:12:23.041Z,14
2022-11-24T03:13:23.021Z,20
2022-11-24T03:14:23.147Z,15
2022-11-24T03:15:23.012Z,17
2022-11-24T03:16:23.139Z,19
2022-11-24T03:17:23.120Z,17
2022-11-24T03:18:23.036Z,23
2022-11-24T03:19:23.019Z,16
2022-11-24T03:20:23.087Z,21
2022-11-24T03:21:23.013Z,18
2022-11-24T03:22:23.020Z,18
2022-11-24T03:23:23.038Z,23
2022-11-24T03:24:23.096Z,15
2022-11-24T03:25:23.031Z,17
2022-11-24T03:26:23.100Z,16
2022-11-24T03:27:23.023Z,15
2022-11-24T03:28:23.033Z,14
2022-11-24T03:29:23.062Z,18
2022-11-24T03:30:23.051Z,22
2022-11-24T03:31:23.120Z,16
2022-11-24T03:32:23.142Z,16
2022-11-24T03:33:23.038Z,43
2022-11-24T03:34:23.018Z,24
2022-11-24T03:35:23.024Z,19
2022-11-24T03:36:23.024Z,16
2022-11-24T03:37:23.024Z,17
2022-11-24T03:38:23.042Z,19
2022-11-24T03:39:23.137Z,18
2022-11-24T03:40:23.117Z,17
2022-11-24T03:41:23.076Z,16
2022-11-24T03:42:23.110Z,12
2022-11-24T03:43:23.114Z,17
2022-11-24T03:44:23.015Z,15
2022-11-24T03:45:44.827Z,17
2022-11-24T03:46:23.117Z,15
2022-11-24T03:47:23.101Z,14
2022-11-24T03:48:23.025Z,15
2022-11-24T03:49:23.026Z,18
2022-11-24T03:50:23.021Z,15
2022-11-24T03:51:23.020Z,24
2022-11-24T03:52:23.013Z,17
2022-11-24T03:53:23.035Z,20
2022-11-24T03:54:23.134Z,19
2022-11-24T03:55:23.127Z,19
2022-11-24T03:56:23.031Z,15
2022-11-24T03:57:23.094Z,19
2022-11-24T03:58:23.028Z,19
2022-11-24T03:59:23.021Z,18
2022-11-24T04:00:23.025Z,14
2022-11-24T04:01:23.053Z,14
2022-11-24T04:02:23.143Z,17
2022-11-24T04:03:23.126Z,18
2022-11-24T04:04:23.029Z,23
2022-11-24T04:05:23.020Z,18
2022-11-24T04:06:23.013Z,21
2022-11-24T04:07:23.142Z,22
2022-11-24T04:08:23.043Z,15
2022-11-24T04:09:23.020Z,13
2022-11-24T04:10:23.127Z,16
2022-11-24T04:11:23.043Z,13
2022-11-24T04:12:23.021Z,14
2022-11-24T04:13:23.039Z,19
2022-11-24T04:14:23.127Z,15
2022-11-24T04:15:23.009Z,20
2022-11-24T04:16:23.080Z,17
2022-11-24T04:17:23.029Z,17
2022-11-24T04:18:23.109Z,15
2022-11-24T04:19:23.021Z,14
2022-11-24T04:20:23.019Z,14
2022-11-24T04:21:23.021Z,17
2022-11-24T04:22:23.022Z,18
2022-11-24T04:23:23.027Z,20
2022-11-24T04:24:23.026Z,16
2022-11-24T04:25:23.089Z,21
2022-11-24T04:26:23.137Z,15
2022-11-24T04:27:23.011Z,17
2022-11-24T04:28:23.033Z,15
2022-11-24T04:29:23.038Z,18
2022-11-24T04:30:23.031Z,17
2022-11-24T04:31:23.166Z,17
2022-11-24T04:32:23.025Z,17
2022-11-24T04:33:23.120Z,18
2022-11-24T04:34:23.122Z,22
2022-11-24T04:35:23.022Z,17
2022-11-24T04:36:23.029Z,13
2022-11-24T04:37:23.106Z,16
2022-11-24T04:39:25.421Z,19
2022-11-24T04:39:27.953Z,16
2022-11-24T04:40:23.031Z,13
2022-11-24T04:41:23.139Z,18
2022-11-24T04:42:23.028Z,13
2022-11-24T04:43:23.030Z,16
2022-11-24T04:44:23.049Z,15
2022-11-24T04:45:23.033Z,16
2022-11-24T04:46:23.084Z,15
2022-11-24T04:47:23.022Z,14
2022-11-24T04:48:23.110Z,13
2022-11-24T04:49:23.130Z,16
2022-11-24T04:50:23.027Z,20
2022-11-24T04:51:23.099Z,20
2022-11-24T04:52:23.021Z,19
2022-11-24T04:53:23.038Z,18
2022-11-24T04:54:23.093Z,18
2022-11-24T04:55:23.094Z,17
2022-11-24T04:56:23.123Z,13
2022-11-24T04:57:23.138Z,18
2022-11-24T04:58:23.057Z,15
2022-11-24T04:59:23.029Z,14
2022-11-24T05:00:23.027Z,20
2022-11-24T05:01:23.041Z,14
2022-11-24T05:02:23.018Z,16
2022-11-24T05:03:23.024Z,19
2022-11-24T05:04:23.142Z,18
2022-11-24T05:05:23.012Z,15
2022-11-24T05:06:23.026Z,11
2022-11-24T05:07:23.074Z,15
2022-11-24T05:08:23.033Z,13
2022-11-24T05:09:28.867Z,20
2022-11-24T05:10:23.013Z,18
2022-11-24T05:11:23.100Z,17
2022-11-24T05:12:23.115Z,16
2022-11-24T05:13:23.025Z,16
2022-11-24T05:14:23.091Z,22
2022-11-24T05:15:23.011Z,13
2022-11-24T05:16:23.039Z,15
2022-11-24T05:17:23.028Z,17
2022-11-24T05:18:23.037Z,14
2022-11-24T05:19:24.060Z,18
2022-11-24T05:20:23.137Z,15
2022-11-24T05:21:23.023Z,14
2022-11-24T05:22:23.031Z,11
2022-11-24T05:23:23.046Z,17
2022-11-24T05:24:23.027Z,18
2022-11-24T05:25:23.010Z,14
2022-11-24T05:26:23.044Z,17
2022-11-24T05:27:23.113Z,14
2022-11-24T05:28:23.117Z,15
2022-11-24T05:29:23.024Z,20
2022-11-24T05:30:23.019Z,19
2022-11-24T05:31:23.221Z,16
2022-11-24T05:32:23.014Z,12
2022-11-24T05:33:23.072Z,15
2022-11-24T05:34:23.107Z,13
2022-11-24T05:35:23.097Z,12
2022-11-24T05:36:23.020Z,16
2022-11-24T05:37:23.030Z,26
2022-11-24T05:38:23.035Z,15
2022-11-24T05:39:23.030Z,14
2022-11-24T05:40:23.024Z,13
2022-11-24T05:41:23.049Z,13
2022-11-24T05:42:23.109Z,14
2022-11-24T05:43:23.187Z,18
2022-11-24T05:44:23.026Z,15
2022-11-24T05:45:23.032Z,17
2022-11-24T05:46:23.075Z,15
2022-11-24T05:47:23.026Z,18
2022-11-24T05:48:23.036Z,15
2022-11-24T05:49:23.027Z,16
2022-11-24T05:50:23.089Z,13
2022-11-24T05:51:23.022Z,15
2022-11-24T05:52:23.019Z,17
2022-11-24T05:53:23.031Z,13
2022-11-24T05:54:23.155Z,15
2022-11-24T05:55:23.018Z,17
2022-11-24T05:56:23.020Z,18
2022-11-24T05:57:23.106Z,12
2022-11-24T05:58:23.109Z,13
2022-11-24T05:59:23.011Z,13
2022-11-24T06:00:23.082Z,15
2022-11-24T06:01:23.018Z,14
2022-11-24T06:02:23.118Z,16
2022-11-24T06:03:23.118Z,17
2022-11-24T06:04:23.021Z,17
2022-11-24T06:05:23.092Z,18
2022-11-24T06:06:23.124Z,22
2022-11-24T06:07:23.069Z,16
2022-11-24T06:08:26.839Z,14
2022-11-24T06:09:23.043Z,15
2022-11-24T06:10:23.024Z,14
2022-11-24T06:11:23.043Z,21
2022-11-24T06:12:23.021Z,14
2022-11-24T06:13:23.145Z,20
2022-11-24T06:14:23.044Z,18
2022-11-24T06:15:23.018Z,18
2022-11-24T06:16:23.058Z,14
2022-11-24T06:17:23.106Z,21
2022-11-24T06:18:23.026Z,15
2022-11-24T06:19:23.022Z,13
2022-11-24T06:20:24.381Z,20
2022-11-24T06:21:23.096Z,18
2022-11-24T06:22:23.020Z,17
2022-11-24T06:23:23.100Z,14
2022-11-24T06:24:23.026Z,22
2022-11-24T06:25:23.025Z,22
2022-11-24T06:26:23.031Z,16
2022-11-24T06:27:23.021Z,15
2022-11-24T06:28:23.109Z,21
2022-11-24T06:29:23.120Z,19
2022-11-24T06:30:23.008Z,20
2022-11-24T06:31:23.072Z,17
2022-11-24T06:32:23.025Z,15
2022-11-24T06:33:23.037Z,16
2022-11-24T06:34:23.008Z,14
2022-11-24T06:35:23.022Z,20
2022-11-24T06:36:23.101Z,17
2022-11-24T06:37:23.128Z,13
2022-11-24T06:38:24.394Z,16
2022-11-24T06:39:23.022Z,13
2022-11-24T06:40:23.093Z,21
2022-11-24T06:41:23.017Z,22
2022-11-24T06:42:23.010Z,17
2022-11-24T06:43:23.099Z,18
2022-11-24T06:44:23.091Z,15
2022-11-24T06:45:23.036Z,19
2022-11-24T06:46:23.063Z,16
2022-11-24T06:47:23.011Z,16
2022-11-24T06:48:23.036Z,16
2022-11-24T06:49:23.019Z,18
2022-11-24T06:50:23.025Z,14
2022-11-24T06:51:23.097Z,17
2022-11-24T06:52:23.129Z,13
2022-11-24T06:53:23.045Z,15
2022-11-24T06:54:23.015Z,14
2022-11-24T06:55:23.011Z,14
2022-11-24T06:56:23.021Z,20
2022-11-24T06:57:23.119Z,13
2022-11-24T06:58:23.038Z,16
2022-11-24T06:59:23.112Z,17
2022-11-24T07:00:23.121Z,20
2022-11-24T07:01:23.161Z,15
2022-11-24T07:02:23.014Z,17
2022-11-24T07:03:23.199Z,16
2022-11-24T07:04:23.021Z,18
2022-11-24T07:05:23.010Z,17
2022-11-24T07:06:23.014Z,16
2022-11-24T07:07:23.236Z,13
2022-11-24T07:08:23.026Z,15
2022-11-24T07:09:23.227Z,16
2022-11-24T07:10:23.020Z,10
2022-11-24T07:11:23.015Z,15
2022-11-24T07:12:23.036Z,14
2022-11-24T07:13:23.039Z,15
2022-11-24T07:14:23.103Z,13
2022-11-24T07:15:23.119Z,12
2022-11-24T07:16:23.097Z,13
2022-11-24T07:17:23.095Z,16
2022-11-24T07:18:23.036Z,15
2022-11-24T07:19:24.857Z,11
2022-11-24T07:20:23.106Z,11
2022-11-24T07:21:23.017Z,14
2022-11-24T07:22:23.097Z,11
2022-11-24T07:23:23.134Z,14
2022-11-24T07:24:23.009Z,12
2022-11-24T07:25:23.025Z,11
2022-11-24T07:26:23.016Z,12
2022-11-24T07:27:23.017Z,13
2022-11-24T07:28:23.028Z,15
2022-11-24T07:29:23.025Z,14
2022-11-24T07:30:23.075Z,10
2022-11-24T07:31:23.064Z,10
2022-11-24T07:32:23.068Z,13
2022-11-24T07:33:23.054Z,9
2022-11-24T07:34:23.017Z,8
2022-11-24T07:35:23.018Z,10
2022-11-24T07:36:23.021Z,10
2022-11-24T07:37:28.118Z,14
2022-11-24T07:38:23.094Z,8
2022-11-24T07:39:23.059Z,13
2022-11-24T07:40:23.038Z,12
2022-11-24T07:41:23.038Z,9
2022-11-24T07:42:23.019Z,9
2022-11-24T07:43:23.034Z,11
2022-11-24T07:44:23.025Z,8
2022-11-24T07:45:23.098Z,12
2022-11-24T07:46:23.193Z,7
2022-11-24T07:47:23.038Z,9
2022-11-24T07:48:23.037Z,12
2022-11-24T07:49:23.027Z,13
2022-11-24T07:50:23.025Z,11
2022-11-24T07:51:23.011Z,10
2022-11-24T07:52:23.024Z,11
2022-11-24T07:53:23.107Z,9
2022-11-24T07:54:23.126Z,10
2022-11-24T07:55:23.012Z,10
2022-11-24T07:56:23.018Z,10
2022-11-24T07:57:23.089Z,9
2022-11-24T07:58:23.073Z,11
2022-11-24T07:59:23.042Z,6
2022-11-24T08:00:23.036Z,11
2022-11-24T08:01:23.145Z,10
2022-11-24T08:02:23.025Z,8
2022-11-24T08:03:23.109Z,9
2022-11-24T08:04:23.027Z,9
2022-11-24T08:05:23.032Z,10
2022-11-24T08:06:25.491Z,9
2022-11-24T08:07:23.043Z,11
2022-11-24T08:08:23.103Z,10
2022-11-24T08:09:23.078Z,6
2022-11-24T08:10:23.035Z,8
2022-11-24T08:11:23.107Z,7
2022-11-24T08:12:23.023Z,8
2022-11-24T08:13:23.039Z,11
2022-11-24T08:14:23.086Z,9
2022-11-24T08:15:23.047Z,9
2022-11-24T08:16:23.176Z,9
2022-11-24T08:17:23.120Z,8
2022-11-24T08:18:23.080Z,7
2022-11-24T08:19:23.022Z,8
2022-11-24T08:20:23.015Z,9
2022-11-24T08:21:23.032Z,6
2022-11-24T08:22:23.010Z,9
2022-11-24T08:23:23.062Z,8
2022-11-24T08:24:23.071Z,5
2022-11-24T08:25:23.025Z,9
2022-11-24T08:26:23.053Z,10
2022-11-24T08:27:23.017Z,8
2022-11-24T08:28:23.074Z,11
2022-11-24T08:29:23.022Z,5
2022-11-24T08:30:23.007Z,7
2022-11-24T08:31:23.112Z,6
2022-11-24T08:32:23.162Z,7
2022-11-24T08:33:23.038Z,10
2022-11-24T08:34:23.087Z,6
2022-11-24T08:35:23.006Z,7
2022-11-24T08:36:23.024Z,10
2022-11-24T08:37:23.092Z,9
2022-11-24T08:38:23.033Z,8
2022-11-24T08:39:23.077Z,7
2022-11-24T08:40:23.119Z,7
2022-11-24T08:41:23.011Z,9
2022-11-24T08:42:23.005Z,11
2022-11-24T08:43:23.055Z,7
2022-11-24T08:44:23.000Z,7
2022-11-24T08:45:24.696Z,8
2022-11-24T08:46:23.053Z,6
2022-11-24T08:47:23.105Z,8
2022-11-24T08:48:23.049Z,8
2022-11-24T08:49:23.066Z,10
2022-11-24T08:50:23.056Z,10
2022-11-24T08:51:23.009Z,8
2022-11-24T08:52:23.020Z,6
2022-11-24T08:53:23.034Z,9
2022-11-24T08:54:23.106Z,7
2022-11-24T08:55:23.127Z,7
2022-11-24T08:56:23.012Z,8
2022-11-24T08:57:23.101Z,8
2022-11-24T08:58:23.032Z,6
2022-11-24T08:59:23.110Z,7
2022-11-24T09:00:23.213Z,8
2022-11-24T09:01:23.151Z,8
2022-11-24T09:02:23.083Z,10
2022-11-24T09:03:23.132Z,6
2022-11-24T09:04:23.180Z,9
2022-11-24T09:05:50.801Z,7
2022-11-24T09:06:23.252Z,7
2022-11-24T09:07:23.057Z,9
2022-11-24T09:08:23.037Z,9
2022-11-24T09:09:23.005Z,10
2022-11-24T09:10:23.086Z,8
2022-11-24T09:11:23.007Z,7
2022-11-24T09:12:23.020Z,7
2022-11-24T09:13:23.041Z,10
2022-11-24T09:14:23.101Z,10
2022-11-24T09:15:23.027Z,7
2022-11-24T09:16:23.093Z,8
2022-11-24T09:17:23.247Z,8
2022-11-24T09:18:27.513Z,8
2022-11-24T09:19:23.013Z,8
2022-11-24T09:20:23.045Z,8
2022-11-24T09:21:23.004Z,9
2022-11-24T09:22:23.048Z,5
2022-11-24T09:23:23.097Z,7
2022-11-24T09:24:22.999Z,8
2022-11-24T09:25:23.074Z,9
2022-11-24T09:26:23.120Z,10
2022-11-24T09:27:23.174Z,11
2022-11-24T09:28:23.279Z,10
2022-11-24T09:29:23.038Z,9
2022-11-24T09:30:23.026Z,7
2022-11-24T09:31:23.071Z,9
2022-11-24T09:32:23.019Z,12
2022-11-24T09:33:23.094Z,11
2022-11-24T09:34:23.102Z,6
2022-11-24T09:35:23.009Z,13
2022-11-24T09:36:23.010Z,9
2022-11-24T09:37:25.902Z,9
2022-11-24T09:38:23.028Z,13
2022-11-24T09:39:22.998Z,10
2022-11-24T09:40:23.031Z,10
2022-11-24T09:41:23.081Z,7
2022-11-24T09:42:23.019Z,7
2022-11-24T09:43:23.022Z,8
2022-11-24T09:44:23.024Z,7
2022-11-24T09:45:35.669Z,9
2022-11-24T09:46:23.057Z,8
2022-11-24T09:47:23.026Z,7
2022-11-24T09:48:23.115Z,7
2022-11-24T09:49:23.127Z,8
2022-11-24T09:50:23.023Z,10
2022-11-24T09:51:23.070Z,10
2022-11-24T09:52:23.015Z,8
2022-11-24T09:53:23.020Z,9
2022-11-24T09:54:23.089Z,8
2022-11-24T09:55:23.009Z,12
2022-11-24T09:56:23.116Z,9
2022-11-24T09:57:23.108Z,10
2022-11-24T09:58:23.030Z,11
2022-11-24T09:59:23.010Z,11
2022-11-24T10:00:23.021Z,10
2022-11-24T10:01:23.058Z,9
2022-11-24T10:02:23.036Z,12
2022-11-24T10:03:23.032Z,12
2022-11-24T10:04:23.113Z,11
2022-11-24T10:05:23.046Z,8
2022-11-24T10:06:23.015Z,10
2022-11-24T10:07:23.075Z,11
2022-11-24T10:08:23.024Z,10
2022-11-24T10:09:23.020Z,14
2022-11-24T10:10:25.234Z,9
2022-11-24T10:11:23.260Z,8
2022-11-24T10:12:23.341Z,11
2022-11-24T10:13:23.030Z,11
2022-11-24T10:14:23.452Z,9
2022-11-24T10:15:23.011Z,10
2022-11-24T10:16:23.111Z,10
2022-11-24T10:17:23.018Z,9
2022-11-24T10:18:23.005Z,7
2022-11-24T10:19:23.089Z,9
2022-11-24T10:20:23.145Z,7
2022-11-24T10:21:23.021Z,12
2022-11-24T10:22:23.020Z,7
2022-11-24T10:23:23.016Z,7
2022-11-24T10:24:23.017Z,10
2022-11-24T10:25:23.014Z,11
2022-11-24T10:26:23.026Z,9
2022-11-24T10:27:23.115Z,12
2022-11-24T10:28:23.010Z,9
2022-11-24T10:29:23.021Z,9
2022-11-24T10:30:23.029Z,11
2022-11-24T10:31:23.094Z,12
2022-11-24T10:32:23.014Z,12
2022-11-24T10:33:28.822Z,8
2022-11-24T10:34:23.025Z,10
2022-11-24T10:35:23.086Z,9
2022-11-24T10:36:23.015Z,12
2022-11-24T10:37:23.001Z,10
2022-11-24T10:38:22.999Z,10
2022-11-24T10:39:23.013Z,11
2022-11-24T10:40:40.985Z,11
2022-11-24T10:41:23.009Z,11
2022-11-24T10:42:23.075Z,13
2022-11-24T10:43:23.117Z,9
2022-11-24T10:44:22.999Z,9
2022-11-24T10:45:23.093Z,6
2022-11-24T10:46:23.189Z,6
2022-11-24T10:47:23.108Z,13
2022-11-24T10:48:23.085Z,10
2022-11-24T10:49:23.020Z,12
2022-11-24T10:50:23.083Z,9
2022-11-24T10:51:23.112Z,12
2022-11-24T10:52:23.009Z,10
2022-11-24T10:53:23.042Z,11
2022-11-24T10:54:23.011Z,8
2022-11-24T10:55:23.017Z,9
2022-11-24T10:56:22.994Z,8
2022-11-24T10:57:23.021Z,8
2022-11-24T10:58:23.078Z,13
2022-11-24T10:59:23.100Z,13
2022-11-24T11:00:23.015Z,8
2022-11-24T11:01:23.099Z,12
2022-11-24T11:02:23.061Z,9
2022-11-24T11:03:23.016Z,12
2022-11-24T11:04:23.060Z,11
2022-11-24T11:05:23.101Z,9
2022-11-24T11:06:23.101Z,9
2022-11-24T11:07:23.029Z,12
2022-11-24T11:08:23.113Z,10
2022-11-24T11:09:23.029Z,12
2022-11-24T11:10:23.020Z,11
2022-11-24T11:11:23.088Z,16
2022-11-24T11:12:47.482Z,8
2022-11-24T11:13:23.082Z,11
2022-11-24T11:14:23.123Z,10
2022-11-24T11:15:23.000Z,13
2022-11-24T11:16:23.032Z,13
2022-11-24T11:17:23.028Z,11
2022-11-24T11:18:22.991Z,12
2022-11-24T11:19:47.221Z,13
2022-11-24T11:20:23.003Z,13
2022-11-24T11:21:23.067Z,12
2022-11-24T11:22:23.004Z,12
2022-11-24T11:23:23.015Z,14
2022-11-24T11:24:23.073Z,12
2022-11-24T11:25:23.021Z,13
2022-11-24T11:26:23.003Z,9
2022-11-24T11:27:23.029Z,13
2022-11-24T11:28:23.104Z,12
2022-11-24T11:31:23.177Z,15
2022-11-24T11:34:29.846Z,11
2022-11-24T11:35:23.009Z,14
2022-11-24T11:36:23.089Z,12
2022-11-24T11:37:23.112Z,12
2022-11-24T11:38:23.014Z,15
2022-11-24T11:39:23.068Z,12
2022-11-24T11:40:23.009Z,14
2022-11-24T11:41:23.018Z,12
2022-11-24T11:42:53.941Z,11
2022-11-24T11:43:23.009Z,11
2022-11-24T11:44:23.099Z,17
2022-11-24T11:45:23.091Z,12
2022-11-24T11:46:23.146Z,11
2022-11-24T11:47:23.016Z,11
2022-11-24T11:48:23.101Z,14
2022-11-24T11:49:23.037Z,10
2022-11-24T11:50:23.045Z,15
2022-11-24T11:51:24.208Z,13
2022-11-24T11:52:23.117Z,12
2022-11-24T11:53:23.000Z,12
2022-11-24T11:54:23.099Z,14
2022-11-24T11:55:23.033Z,11
2022-11-24T11:56:23.010Z,12
2022-11-24T11:57:23.020Z,10
2022-11-24T11:58:23.010Z,11
2022-11-24T11:59:23.101Z,10
2022-11-24T12:00:23.101Z,11
2022-11-24T12:01:23.006Z,15
2022-11-24T12:02:23.121Z,15
2022-11-24T12:03:23.107Z,14
2022-11-24T12:04:23.024Z,13
2022-11-24T12:05:23.026Z,12
2022-11-24T12:06:23.023Z,19
2022-11-24T12:07:23.139Z,13
2022-11-24T12:08:23.187Z,12
2022-11-24T12:09:23.030Z,9
2022-11-24T12:10:23.051Z,14
2022-11-24T12:11:23.078Z,12
2022-11-24T12:12:23.028Z,11
2022-11-24T12:13:23.021Z,15
2022-11-24T12:14:23.022Z,16
2022-11-24T12:15:23.082Z,13
2022-11-24T12:16:23.177Z,16
2022-11-24T12:17:23.027Z,13
2022-11-24T12:18:49.025Z,14
2022-11-24T12:19:23.025Z,13
2022-11-24T12:20:23.009Z,11
2022-11-24T12:21:26.414Z,14
2022-11-24T12:22:23.093Z,14
2022-11-24T12:23:23.116Z,15
2022-11-24T12:24:23.064Z,14
2022-11-24T12:25:23.094Z,9
2022-11-24T12:26:23.040Z,17
2022-11-24T12:27:23.516Z,16
2022-11-24T12:28:23.093Z,13
2022-11-24T12:29:23.030Z,13
2022-11-24T12:30:24.166Z,13
2022-11-24T12:31:23.155Z,13
2022-11-24T12:32:23.012Z,14
2022-11-24T12:33:23.011Z,11
2022-11-24T12:34:23.053Z,12
2022-11-24T12:35:23.002Z,13
2022-11-24T12:36:23.010Z,15
2022-11-24T12:37:23.006Z,18
2022-11-24T12:38:23.068Z,13
2022-11-24T12:39:23.033Z,18
2022-11-24T12:40:23.023Z,17
2022-11-24T12:41:41.041Z,13
2022-11-24T12:42:23.116Z,13
2022-11-24T12:43:23.011Z,12
2022-11-24T12:44:23.009Z,12
2022-11-24T12:45:23.104Z,14
2022-11-24T12:46:23.172Z,13
2022-11-24T12:47:23.015Z,13
2022-11-24T12:48:23.009Z,14
2022-11-24T12:49:23.018Z,15
2022-11-24T12:50:23.004Z,18
2022-11-24T12:51:23.010Z,13
2022-11-24T12:52:23.001Z,13
2022-11-24T12:53:23.074Z,13
2022-11-24T12:54:23.098Z,17
2022-11-24T12:55:23.007Z,12
2022-11-24T12:56:23.020Z,13
2022-11-24T12:57:23.051Z,16
2022-11-24T12:58:22.996Z,11
2022-11-24T12:59:23.018Z,12
2022-11-24T13:00:23.011Z,13
2022-11-24T13:01:23.111Z,11
2022-11-24T13:02:23.247Z,14
2022-11-24T13:03:22.997Z,11
2022-11-24T13:04:23.012Z,12
2022-11-24T13:05:23.072Z,13
2022-11-24T13:06:23.023Z,11
2022-11-24T13:07:23.053Z,13
2022-11-24T13:08:23.014Z,9
2022-11-24T13:09:23.080Z,12
2022-11-24T13:10:34.901Z,12
2022-11-24T13:11:23.023Z,11
2022-11-24T13:12:23.013Z,14
2022-11-24T13:13:23.071Z,12
2022-11-24T13:14:23.033Z,8
2022-11-24T13:15:44.490Z,17
2022-11-24T13:16:53.218Z,15
2022-11-24T13:17:30.385Z,10
2022-11-24T13:18:23.135Z,14
2022-11-24T13:19:23.112Z,15
2022-11-24T13:20:23.000Z,11
2022-11-24T13:21:23.026Z,13
2022-11-24T13:22:23.330Z,11
2022-11-24T13:23:23.045Z,11
2022-11-24T13:24:23.072Z,11
2022-11-24T13:25:23.133Z,10
2022-11-24T13:26:23.031Z,10
2022-11-24T13:27:23.002Z,13
2022-11-24T13:28:39.432Z,11
2022-11-24T13:29:25.247Z,10
2022-11-24T13:30:23.018Z,12
2022-11-24T13:31:23.222Z,11
2022-11-24T13:32:23.080Z,11
2022-11-24T13:33:25.875Z,13
2022-11-24T13:34:23.008Z,11
2022-11-24T13:35:23.006Z,13
2022-11-24T13:36:23.012Z,10
2022-11-24T13:37:26.711Z,10
2022-11-24T13:38:23.024Z,11
2022-11-24T13:39:23.117Z,13
2022-11-24T13:40:23.217Z,12
2022-11-24T13:41:28.623Z,12
2022-11-24T13:42:42.627Z,13
2022-11-24T13:43:23.011Z,11
2022-11-24T13:44:23.012Z,12
2022-11-24T13:45:23.015Z,11
2022-11-24T13:46:23.029Z,14
2022-11-24T13:47:23.100Z,8
2022-11-24T13:48:23.129Z,10
2022-11-24T13:49:23.020Z,11
2022-11-24T13:50:23.017Z,12
2022-11-24T13:51:23.013Z,9
2022-11-24T13:52:23.003Z,12
2022-11-24T13:53:23.002Z,10
2022-11-24T13:54:23.020Z,10
2022-11-24T13:55:23.084Z,10
2022-11-24T13:56:23.110Z,12
2022-11-24T13:57:23.011Z,12
2022-11-24T13:58:23.017Z,9
2022-11-24T13:59:23.115Z,11
2022-11-24T14:00:23.016Z,10
2022-11-24T14:01:23.202Z,8
2022-11-24T14:02:23.119Z,11
2022-11-24T14:03:23.225Z,13
2022-11-24T14:04:31.855Z,7
2022-11-24T14:05:23.052Z,12
2022-11-24T14:06:23.002Z,12
2022-11-24T14:07:23.052Z,8
2022-11-24T14:08:23.047Z,10
2022-11-24T14:09:23.060Z,10
2022-11-24T14:10:23.092Z,14
2022-11-24T14:11:23.116Z,10
2022-11-24T14:12:23.005Z,12
2022-11-24T14:13:23.089Z,13
2022-11-24T14:14:23.016Z,9
2022-11-24T14:15:23.034Z,10
2022-11-24T14:16:23.191Z,12
2022-11-24T14:17:23.349Z,13
2022-11-24T14:18:23.077Z,11
2022-11-24T14:19:24.836Z,7
2022-11-24T14:20:23.011Z,12
2022-11-24T14:21:23.043Z,12
2022-11-24T14:22:23.000Z,11
2022-11-24T14:23:23.016Z,10
2022-11-24T14:24:23.016Z,13